sensor_id;sensor_type;location;lat;lon;timestamp;temperature;humidity
68128;SHT30;54931;52.098;21.006;2022-08-01T00:02:22;16.02;86.88
68128;SHT30;54931;52.098;21.006;2022-08-01T00:04:49;16.03;86.90
68128;SHT30;54931;52.098;21.006;2022-08-01T00:07:16;16.02;86.94
68128;SHT30;54931;52.098;21.006;2022-08-01T00:09:43;16.02;86.88
68128;SHT30;54931;52.098;21.006;2022-08-01T00:12:11;16.02;86.97
68128;SHT30;54931;52.098;21.006;2022-08-01T00:14:38;16.01;87.05
68128;SHT30;54931;52.098;21.006;2022-08-01T00:17:05;16.00;87.00
68128;SHT30;54931;52.098;21.006;2022-08-01T00:19:33;15.99;87.10
68128;SHT30;54931;52.098;21.006;2022-08-01T00:22:00;15.99;87.04
68128;SHT30;54931;52.098;21.006;2022-08-01T00:24:27;15.98;87.12
68128;SHT30;54931;52.098;21.006;2022-08-01T00:26:55;15.97;87.11
68128;SHT30;54931;52.098;21.006;2022-08-01T00:29:22;15.98;87.14
68128;SHT30;54931;52.098;21.006;2022-08-01T00:31:49;16.00;87.06
68128;SHT30;54931;52.098;21.006;2022-08-01T00:34:17;16.01;86.99
68128;SHT30;54931;52.098;21.006;2022-08-01T00:36:44;16.01;87.11
68128;SHT30;54931;52.098;21.006;2022-08-01T00:39:13;15.99;87.12
68128;SHT30;54931;52.098;21.006;2022-08-01T00:41:40;15.99;87.05
68128;SHT30;54931;52.098;21.006;2022-08-01T00:44:07;16.00;86.99
68128;SHT30;54931;52.098;21.006;2022-08-01T00:46:35;16.00;87.01
68128;SHT30;54931;52.098;21.006;2022-08-01T00:49:02;16.00;87.07
68128;SHT30;54931;52.098;21.006;2022-08-01T00:51:30;16.00;87.03
68128;SHT30;54931;52.098;21.006;2022-08-01T00:53:57;15.97;87.10
68128;SHT30;54931;52.098;21.006;2022-08-01T00:56:25;15.95;87.11
68128;SHT30;54931;52.098;21.006;2022-08-01T00:58:54;15.93;87.13
68128;SHT30;54931;52.098;21.006;2022-08-01T01:01:22;15.92;87.08
68128;SHT30;54931;52.098;21.006;2022-08-01T01:03:51;15.92;87.21
68128;SHT30;54931;52.098;21.006;2022-08-01T01:09:40;15.87;87.18
68128;SHT30;54931;52.098;21.006;2022-08-01T01:12:35;15.86;87.26
68128;SHT30;54931;52.098;21.006;2022-08-01T01:18:05;15.80;87.28
68128;SHT30;54931;52.098;21.006;2022-08-01T01:20:37;15.78;87.37
68128;SHT30;54931;52.098;21.006;2022-08-01T01:23:10;15.77;87.38
68128;SHT30;54931;52.098;21.006;2022-08-01T01:29:16;15.76;87.34
68128;SHT30;54931;52.098;21.006;2022-08-01T01:31:48;15.74;87.31
68128;SHT30;54931;52.098;21.006;2022-08-01T01:34:23;15.74;87.25
68128;SHT30;54931;52.098;21.006;2022-08-01T01:36:54;15.73;87.42
68128;SHT30;54931;52.098;21.006;2022-08-01T01:39:25;15.70;87.41
68128;SHT30;54931;52.098;21.006;2022-08-01T01:41:56;15.67;87.44
68128;SHT30;54931;52.098;21.006;2022-08-01T01:44:26;15.64;87.50
68128;SHT30;54931;52.098;21.006;2022-08-01T01:46:56;15.59;87.54
68128;SHT30;54931;52.098;21.006;2022-08-01T01:49:26;15.56;87.55
68128;SHT30;54931;52.098;21.006;2022-08-01T01:51:57;15.54;87.55
68128;SHT30;54931;52.098;21.006;2022-08-01T01:54:31;15.51;87.53
68128;SHT30;54931;52.098;21.006;2022-08-01T01:57:05;15.47;87.61
68128;SHT30;54931;52.098;21.006;2022-08-01T01:59:36;15.44;87.49
68128;SHT30;54931;52.098;21.006;2022-08-01T02:02:06;15.41;87.49
68128;SHT30;54931;52.098;21.006;2022-08-01T02:04:38;15.37;87.52
68128;SHT30;54931;52.098;21.006;2022-08-01T02:07:12;15.34;87.60
68128;SHT30;54931;52.098;21.006;2022-08-01T02:09:45;15.30;87.52
68128;SHT30;54931;52.098;21.006;2022-08-01T02:12:14;15.26;87.52
68128;SHT30;54931;52.098;21.006;2022-08-01T02:14:45;15.22;87.55
68128;SHT30;54931;52.098;21.006;2022-08-01T02:17:17;15.16;87.67
68128;SHT30;54931;52.098;21.006;2022-08-01T02:19:47;15.12;87.71
68128;SHT30;54931;52.098;21.006;2022-08-01T02:28:06;14.97;87.68
68128;SHT30;54931;52.098;21.006;2022-08-01T02:30:41;14.93;87.65
68128;SHT30;54931;52.098;21.006;2022-08-01T02:35:52;14.83;87.70
68128;SHT30;54931;52.098;21.006;2022-08-01T02:38:25;14.80;87.73
68128;SHT30;54931;52.098;21.006;2022-08-01T02:40:58;14.77;87.72
68128;SHT30;54931;52.098;21.006;2022-08-01T02:43:32;14.74;87.75
68128;SHT30;54931;52.098;21.006;2022-08-01T02:46:06;14.69;87.73
68128;SHT30;54931;52.098;21.006;2022-08-01T02:48:40;14.66;87.75
68128;SHT30;54931;52.098;21.006;2022-08-01T02:51:09;14.64;87.67
68128;SHT30;54931;52.098;21.006;2022-08-01T02:53:39;14.60;87.73
68128;SHT30;54931;52.098;21.006;2022-08-01T02:56:09;14.58;87.75
68128;SHT30;54931;52.098;21.006;2022-08-01T02:58:39;14.54;87.73
68128;SHT30;54931;52.098;21.006;2022-08-01T03:01:10;14.52;87.74
68128;SHT30;54931;52.098;21.006;2022-08-01T03:03:39;14.49;87.84
68128;SHT30;54931;52.098;21.006;2022-08-01T03:06:08;14.47;88.01
68128;SHT30;54931;52.098;21.006;2022-08-01T03:08:36;14.46;88.02
68128;SHT30;54931;52.098;21.006;2022-08-01T03:11:05;14.47;88.07
68128;SHT30;54931;52.098;21.006;2022-08-01T03:13:35;14.47;88.18
68128;SHT30;54931;52.098;21.006;2022-08-01T03:16:05;14.47;88.26
68128;SHT30;54931;52.098;21.006;2022-08-01T03:18:34;14.48;88.17
68128;SHT30;54931;52.098;21.006;2022-08-01T03:21:04;14.50;88.24
68128;SHT30;54931;52.098;21.006;2022-08-01T03:23:35;14.53;88.21
68128;SHT30;54931;52.098;21.006;2022-08-01T03:26:04;14.55;88.22
68128;SHT30;54931;52.098;21.006;2022-08-01T03:28:33;14.56;88.18
68128;SHT30;54931;52.098;21.006;2022-08-01T03:31:03;14.57;88.19
68128;SHT30;54931;52.098;21.006;2022-08-01T03:33:31;14.60;88.22
68128;SHT30;54931;52.098;21.006;2022-08-01T03:35:59;14.62;88.21
68128;SHT30;54931;52.098;21.006;2022-08-01T03:38:30;14.66;88.17
68128;SHT30;54931;52.098;21.006;2022-08-01T03:41:08;14.70;88.10
68128;SHT30;54931;52.098;21.006;2022-08-01T03:43:54;14.76;88.13
68128;SHT30;54931;52.098;21.006;2022-08-01T03:46:47;14.81;88.12
68128;SHT30;54931;52.098;21.006;2022-08-01T03:49:23;14.85;88.10
68128;SHT30;54931;52.098;21.006;2022-08-01T03:51:57;14.90;87.97
68128;SHT30;54931;52.098;21.006;2022-08-01T03:54:30;14.95;87.92
68128;SHT30;54931;52.098;21.006;2022-08-01T03:57:01;14.98;87.85
68128;SHT30;54931;52.098;21.006;2022-08-01T03:59:29;15.03;87.80
68128;SHT30;54931;52.098;21.006;2022-08-01T04:02:00;15.06;87.74
68128;SHT30;54931;52.098;21.006;2022-08-01T04:04:29;15.08;87.77
68128;SHT30;54931;52.098;21.006;2022-08-01T04:06:57;15.09;87.71
68128;SHT30;54931;52.098;21.006;2022-08-01T04:09:30;15.11;87.66
68128;SHT30;54931;52.098;21.006;2022-08-01T04:12:00;15.13;87.69
68128;SHT30;54931;52.098;21.006;2022-08-01T04:14:28;15.15;87.68
68128;SHT30;54931;52.098;21.006;2022-08-01T04:16:55;15.18;87.70
68128;SHT30;54931;52.098;21.006;2022-08-01T04:19:24;15.20;87.64
68128;SHT30;54931;52.098;21.006;2022-08-01T04:21:52;15.24;87.67
68128;SHT30;54931;52.098;21.006;2022-08-01T04:24:19;15.28;87.59
68128;SHT30;54931;52.098;21.006;2022-08-01T04:26:51;15.30;87.58
68128;SHT30;54931;52.098;21.006;2022-08-01T04:29:19;15.33;87.51
68128;SHT30;54931;52.098;21.006;2022-08-01T04:31:49;15.37;87.46
68128;SHT30;54931;52.098;21.006;2022-08-01T04:34:20;15.43;87.41
68128;SHT30;54931;52.098;21.006;2022-08-01T04:36:52;15.47;87.31
68128;SHT30;54931;52.098;21.006;2022-08-01T04:39:24;15.50;87.16
68128;SHT30;54931;52.098;21.006;2022-08-01T04:41:58;15.54;87.12
68128;SHT30;54931;52.098;21.006;2022-08-01T04:44:29;15.57;87.04
68128;SHT30;54931;52.098;21.006;2022-08-01T04:47:02;15.61;86.98
68128;SHT30;54931;52.098;21.006;2022-08-01T04:49:34;15.64;86.86
68128;SHT30;54931;52.098;21.006;2022-08-01T04:52:02;15.67;86.76
68128;SHT30;54931;52.098;21.006;2022-08-01T04:54:35;15.73;86.93
68128;SHT30;54931;52.098;21.006;2022-08-01T04:57:03;15.80;86.96
68128;SHT30;54931;52.098;21.006;2022-08-01T04:59:32;15.89;86.78
68128;SHT30;54931;52.098;21.006;2022-08-01T05:02:06;15.94;86.36
68128;SHT30;54931;52.098;21.006;2022-08-01T05:04:42;15.94;86.36
68128;SHT30;54931;52.098;21.006;2022-08-01T05:07:11;15.94;85.98
68128;SHT30;54931;52.098;21.006;2022-08-01T05:09:40;15.91;85.67
68128;SHT30;54931;52.098;21.006;2022-08-01T05:12:09;15.91;85.89
68128;SHT30;54931;52.098;21.006;2022-08-01T05:14:37;15.90;85.75
68128;SHT30;54931;52.098;21.006;2022-08-01T05:17:05;15.84;85.75
68128;SHT30;54931;52.098;21.006;2022-08-01T05:19:34;15.81;85.82
68128;SHT30;54931;52.098;21.006;2022-08-01T05:22:05;15.81;85.94
68128;SHT30;54931;52.098;21.006;2022-08-01T05:24:35;15.78;85.75
68128;SHT30;54931;52.098;21.006;2022-08-01T05:27:05;15.73;85.50
68128;SHT30;54931;52.098;21.006;2022-08-01T05:29:36;15.67;85.38
68128;SHT30;54931;52.098;21.006;2022-08-01T05:32:04;15.64;85.57
68128;SHT30;54931;52.098;21.006;2022-08-01T05:34:32;15.64;85.58
68128;SHT30;54931;52.098;21.006;2022-08-01T05:36:59;15.95;85.67
68128;SHT30;54931;52.098;21.006;2022-08-01T05:39:27;16.51;84.95
68128;SHT30;54931;52.098;21.006;2022-08-01T05:41:54;17.24;83.68
68128;SHT30;54931;52.098;21.006;2022-08-01T05:44:22;17.75;81.92
68128;SHT30;54931;52.098;21.006;2022-08-01T05:46:49;18.39;80.33
68128;SHT30;54931;52.098;21.006;2022-08-01T05:49:16;18.92;78.61
68128;SHT30;54931;52.098;21.006;2022-08-01T05:51:44;19.08;77.62
68128;SHT30;54931;52.098;21.006;2022-08-01T05:54:11;19.50;76.61
68128;SHT30;54931;52.098;21.006;2022-08-01T05:56:39;19.95;76.70
68128;SHT30;54931;52.098;21.006;2022-08-01T05:59:06;20.40;75.09
68128;SHT30;54931;52.098;21.006;2022-08-01T06:01:34;20.78;72.48
68128;SHT30;54931;52.098;21.006;2022-08-01T06:04:01;20.98;72.39
68128;SHT30;54931;52.098;21.006;2022-08-01T06:06:28;21.20;70.39
68128;SHT30;54931;52.098;21.006;2022-08-01T06:08:56;21.23;68.84
68128;SHT30;54931;52.098;21.006;2022-08-01T06:11:23;21.29;68.56
68128;SHT30;54931;52.098;21.006;2022-08-01T06:13:51;21.41;68.30
68128;SHT30;54931;52.098;21.006;2022-08-01T06:16:18;21.54;67.25
68128;SHT30;54931;52.098;21.006;2022-08-01T06:18:46;21.66;66.85
68128;SHT30;54931;52.098;21.006;2022-08-01T06:21:13;21.60;64.59
68128;SHT30;54931;52.098;21.006;2022-08-01T06:23:41;21.58;66.18
68128;SHT30;54931;52.098;21.006;2022-08-01T06:26:09;21.61;65.87
68128;SHT30;54931;52.098;21.006;2022-08-01T06:28:36;21.71;66.08
68128;SHT30;54931;52.098;21.006;2022-08-01T06:31:04;21.94;66.25
68128;SHT30;54931;52.098;21.006;2022-08-01T06:33:32;22.02;65.31
68128;SHT30;54931;52.098;21.006;2022-08-01T06:36:00;22.25;65.85
68128;SHT30;54931;52.098;21.006;2022-08-01T06:38:27;22.60;65.86
68128;SHT30;54931;52.098;21.006;2022-08-01T06:40:54;22.99;64.93
68128;SHT30;54931;52.098;21.006;2022-08-01T06:43:22;23.21;63.78
68128;SHT30;54931;52.098;21.006;2022-08-01T06:45:50;23.27;62.69
68128;SHT30;54931;52.098;21.006;2022-08-01T06:48:17;23.13;61.27
68128;SHT30;54931;52.098;21.006;2022-08-01T06:50:45;22.97;61.39
68128;SHT30;54931;52.098;21.006;2022-08-01T06:53:12;22.92;61.67
68128;SHT30;54931;52.098;21.006;2022-08-01T06:55:39;22.83;61.27
68128;SHT30;54931;52.098;21.006;2022-08-01T06:58:07;22.83;61.83
68128;SHT30;54931;52.098;21.006;2022-08-01T07:00:34;22.94;62.21
68128;SHT30;54931;52.098;21.006;2022-08-01T07:03:05;23.03;61.01
68128;SHT30;54931;52.098;21.006;2022-08-01T07:05:32;23.27;62.08
68128;SHT30;54931;52.098;21.006;2022-08-01T07:08:00;23.45;59.96
68128;SHT30;54931;52.098;21.006;2022-08-01T07:10:27;23.47;60.71
68128;SHT30;54931;52.098;21.006;2022-08-01T07:12:55;23.59;60.46
68128;SHT30;54931;52.098;21.006;2022-08-01T07:15:22;23.62;59.11
68128;SHT30;54931;52.098;21.006;2022-08-01T07:17:53;23.58;58.52
68128;SHT30;54931;52.098;21.006;2022-08-01T07:20:20;23.52;59.07
68128;SHT30;54931;52.098;21.006;2022-08-01T07:22:48;23.36;57.99
68128;SHT30;54931;52.098;21.006;2022-08-01T07:25:15;23.30;58.42
68128;SHT30;54931;52.098;21.006;2022-08-01T07:27:45;23.24;58.00
68128;SHT30;54931;52.098;21.006;2022-08-01T07:30:12;23.31;58.96
68128;SHT30;54931;52.098;21.006;2022-08-01T07:32:40;23.39;58.43
68128;SHT30;54931;52.098;21.006;2022-08-01T07:35:08;23.42;59.15
68128;SHT30;54931;52.098;21.006;2022-08-01T07:37:36;23.55;60.37
68128;SHT30;54931;52.098;21.006;2022-08-01T07:40:05;23.80;58.61
68128;SHT30;54931;52.098;21.006;2022-08-01T07:42:33;23.99;58.95
68128;SHT30;54931;52.098;21.006;2022-08-01T07:45:01;24.15;57.39
68128;SHT30;54931;52.098;21.006;2022-08-01T07:47:28;24.30;56.70
68128;SHT30;54931;52.098;21.006;2022-08-01T07:49:59;24.38;57.28
68128;SHT30;54931;52.098;21.006;2022-08-01T07:52:29;24.52;57.46
68128;SHT30;54931;52.098;21.006;2022-08-01T07:54:57;24.74;56.22
68128;SHT30;54931;52.098;21.006;2022-08-01T07:57:25;24.65;53.81
68128;SHT30;54931;52.098;21.006;2022-08-01T07:59:53;24.41;54.31
68128;SHT30;54931;52.098;21.006;2022-08-01T08:02:21;24.36;55.29
68128;SHT30;54931;52.098;21.006;2022-08-01T08:04:48;24.31;55.13
68128;SHT30;54931;52.098;21.006;2022-08-01T08:07:16;24.38;56.16
68128;SHT30;54931;52.098;21.006;2022-08-01T08:09:44;24.26;55.48
68128;SHT30;54931;52.098;21.006;2022-08-01T08:12:11;24.15;54.94
68128;SHT30;54931;52.098;21.006;2022-08-01T08:14:38;24.19;54.99
68128;SHT30;54931;52.098;21.006;2022-08-01T08:17:06;24.35;54.32
68128;SHT30;54931;52.098;21.006;2022-08-01T08:19:33;24.58;54.54
68128;SHT30;54931;52.098;21.006;2022-08-01T08:22:03;24.66;52.93
68128;SHT30;54931;52.098;21.006;2022-08-01T08:24:39;24.76;54.09
68128;SHT30;54931;52.098;21.006;2022-08-01T08:27:06;24.85;52.74
68128;SHT30;54931;52.098;21.006;2022-08-01T08:29:34;24.79;52.28
68128;SHT30;54931;52.098;21.006;2022-08-01T08:32:01;24.90;53.25
68128;SHT30;54931;52.098;21.006;2022-08-01T08:34:30;25.02;51.98
68128;SHT30;54931;52.098;21.006;2022-08-01T08:36:57;25.13;52.48
68128;SHT30;54931;52.098;21.006;2022-08-01T08:39:26;25.23;51.29
68128;SHT30;54931;52.098;21.006;2022-08-01T08:41:59;25.35;51.93
68128;SHT30;54931;52.098;21.006;2022-08-01T08:44:28;25.42;50.34
68128;SHT30;54931;52.098;21.006;2022-08-01T08:46:56;25.39;50.20
68128;SHT30;54931;52.098;21.006;2022-08-01T08:49:28;25.36;52.08
68128;SHT30;54931;52.098;21.006;2022-08-01T08:51:58;25.44;50.84
68128;SHT30;54931;52.098;21.006;2022-08-01T08:54:27;25.30;50.36
68128;SHT30;54931;52.098;21.006;2022-08-01T08:56:57;25.19;49.84
68128;SHT30;54931;52.098;21.006;2022-08-01T08:59:27;25.32;51.57
68128;SHT30;54931;52.098;21.006;2022-08-01T09:01:55;25.54;51.85
68128;SHT30;54931;52.098;21.006;2022-08-01T09:04:24;25.71;49.48
68128;SHT30;54931;52.098;21.006;2022-08-01T09:06:53;25.73;48.58
68128;SHT30;54931;52.098;21.006;2022-08-01T09:09:21;25.88;49.13
68128;SHT30;54931;52.098;21.006;2022-08-01T09:11:49;26.08;48.93
68128;SHT30;54931;52.098;21.006;2022-08-01T09:14:18;26.17;48.94
68128;SHT30;54931;52.098;21.006;2022-08-01T09:17:04;26.03;46.25
68128;SHT30;54931;52.098;21.006;2022-08-01T09:19:55;25.74;45.89
68128;SHT30;54931;52.098;21.006;2022-08-01T09:22:23;25.49;47.35
68128;SHT30;54931;52.098;21.006;2022-08-01T09:24:58;25.48;48.19
68128;SHT30;54931;52.098;21.006;2022-08-01T09:27:30;25.64;48.12
68128;SHT30;54931;52.098;21.006;2022-08-01T09:30:14;25.74;48.04
68128;SHT30;54931;52.098;21.006;2022-08-01T09:32:58;25.86;48.63
68128;SHT30;54931;52.098;21.006;2022-08-01T09:35:29;26.13;47.36
68128;SHT30;54931;52.098;21.006;2022-08-01T09:38:19;26.26;46.37
68128;SHT30;54931;52.098;21.006;2022-08-01T09:43:27;25.90;45.54
68128;SHT30;54931;52.098;21.006;2022-08-01T09:45:57;25.90;46.66
68128;SHT30;54931;52.098;21.006;2022-08-01T09:48:26;26.01;47.64
68128;SHT30;54931;52.098;21.006;2022-08-01T09:50:54;26.07;46.74
68128;SHT30;54931;52.098;21.006;2022-08-01T09:53:24;25.99;46.24
68128;SHT30;54931;52.098;21.006;2022-08-01T09:55:51;26.05;46.10
68128;SHT30;54931;52.098;21.006;2022-08-01T09:58:20;26.11;45.31
68128;SHT30;54931;52.098;21.006;2022-08-01T10:00:57;26.28;46.38
68128;SHT30;54931;52.098;21.006;2022-08-01T10:03:30;26.38;44.79
68128;SHT30;54931;52.098;21.006;2022-08-01T10:05:57;26.44;46.19
68128;SHT30;54931;52.098;21.006;2022-08-01T10:08:25;26.50;45.28
68128;SHT30;54931;52.098;21.006;2022-08-01T10:11:08;26.51;46.13
68128;SHT30;54931;52.098;21.006;2022-08-01T10:13:38;26.69;44.71
68128;SHT30;54931;52.098;21.006;2022-08-01T10:16:06;26.84;45.79
68128;SHT30;54931;52.098;21.006;2022-08-01T10:18:35;27.00;45.35
68128;SHT30;54931;52.098;21.006;2022-08-01T10:21:07;27.18;44.79
68128;SHT30;54931;52.098;21.006;2022-08-01T10:23:36;26.98;42.58
68128;SHT30;54931;52.098;21.006;2022-08-01T10:26:05;26.82;43.77
68128;SHT30;54931;52.098;21.006;2022-08-01T10:28:37;26.82;45.17
68128;SHT30;54931;52.098;21.006;2022-08-01T10:31:06;27.04;45.91
68128;SHT30;54931;52.098;21.006;2022-08-01T10:33:35;27.21;45.81
68128;SHT30;54931;52.098;21.006;2022-08-01T10:36:06;27.32;45.42
68128;SHT30;54931;52.098;21.006;2022-08-01T10:38:58;27.37;45.70
68128;SHT30;54931;52.098;21.006;2022-08-01T10:41:27;27.53;45.26
68128;SHT30;54931;52.098;21.006;2022-08-01T10:43:55;27.67;45.81
68128;SHT30;54931;52.098;21.006;2022-08-01T10:46:24;27.62;43.61
68128;SHT30;54931;52.098;21.006;2022-08-01T10:48:57;27.38;45.24
68128;SHT30;54931;52.098;21.006;2022-08-01T10:51:37;27.14;44.34
68128;SHT30;54931;52.098;21.006;2022-08-01T10:54:06;26.79;44.32
68128;SHT30;54931;52.098;21.006;2022-08-01T10:56:46;26.18;44.02
68128;SHT30;54931;52.098;21.006;2022-08-01T10:59:23;25.79;45.33
68128;SHT30;54931;52.098;21.006;2022-08-01T11:02:00;25.54;45.91
68128;SHT30;54931;52.098;21.006;2022-08-01T11:07:07;25.36;47.68
68128;SHT30;54931;52.098;21.006;2022-08-01T11:09:47;25.37;48.18
68128;SHT30;54931;52.098;21.006;2022-08-01T11:12:38;25.41;47.30
68128;SHT30;54931;52.098;21.006;2022-08-01T11:17:40;25.80;47.98
68128;SHT30;54931;52.098;21.006;2022-08-01T11:20:19;26.05;48.48
68128;SHT30;54931;52.098;21.006;2022-08-01T11:30:41;25.95;46.61
68128;SHT30;54931;52.098;21.006;2022-08-01T11:33:14;25.91;46.20
68128;SHT30;54931;52.098;21.006;2022-08-01T11:38:44;25.69;48.07
68128;SHT30;54931;52.098;21.006;2022-08-01T11:41:28;25.68;46.66
68128;SHT30;54931;52.098;21.006;2022-08-01T11:44:05;25.41;46.37
68128;SHT30;54931;52.098;21.006;2022-08-01T11:49:45;25.36;48.35
68128;SHT30;54931;52.098;21.006;2022-08-01T11:52:24;25.46;48.51
68128;SHT30;54931;52.098;21.006;2022-08-01T11:55:12;25.61;47.82
68128;SHT30;54931;52.098;21.006;2022-08-01T11:57:41;25.55;46.74
68128;SHT30;54931;52.098;21.006;2022-08-01T12:00:18;25.46;46.72
68128;SHT30;54931;52.098;21.006;2022-08-01T12:02:46;25.41;47.89
68128;SHT30;54931;52.098;21.006;2022-08-01T12:05:25;25.49;47.56
68128;SHT30;54931;52.098;21.006;2022-08-01T12:07:55;25.55;47.19
68128;SHT30;54931;52.098;21.006;2022-08-01T12:10:24;25.61;47.46
68128;SHT30;54931;52.098;21.006;2022-08-01T12:12:59;25.73;48.45
68128;SHT30;54931;52.098;21.006;2022-08-01T12:15:30;25.89;47.53
68128;SHT30;54931;52.098;21.006;2022-08-01T12:18:04;25.93;47.02
68128;SHT30;54931;52.098;21.006;2022-08-01T12:20:35;25.92;47.11
68128;SHT30;54931;52.098;21.006;2022-08-01T12:23:11;25.96;46.64
68128;SHT30;54931;52.098;21.006;2022-08-01T12:25:41;25.99;47.44
68128;SHT30;54931;52.098;21.006;2022-08-01T12:28:12;26.07;48.47
68128;SHT30;54931;52.098;21.006;2022-08-01T12:30:40;26.13;47.61
68128;SHT30;54931;52.098;21.006;2022-08-01T12:33:09;26.30;47.64
68128;SHT30;54931;52.098;21.006;2022-08-01T12:35:43;26.49;46.29
68128;SHT30;54931;52.098;21.006;2022-08-01T12:38:14;26.56;45.00
68128;SHT30;54931;52.098;21.006;2022-08-01T12:40:46;26.64;45.03
68128;SHT30;54931;52.098;21.006;2022-08-01T12:43:18;26.72;45.31
68128;SHT30;54931;52.098;21.006;2022-08-01T12:45:48;26.65;44.32
68128;SHT30;54931;52.098;21.006;2022-08-01T12:48:17;26.68;47.59
68128;SHT30;54931;52.098;21.006;2022-08-01T12:50:49;26.74;45.14
68128;SHT30;54931;52.098;21.006;2022-08-01T12:53:18;26.75;45.29
68128;SHT30;54931;52.098;21.006;2022-08-01T12:55:48;26.68;45.09
68128;SHT30;54931;52.098;21.006;2022-08-01T12:58:19;26.69;45.09
68128;SHT30;54931;52.098;21.006;2022-08-01T13:00:49;26.69;45.01
68128;SHT30;54931;52.098;21.006;2022-08-01T13:03:30;26.53;44.27
68128;SHT30;54931;52.098;21.006;2022-08-01T13:05:57;26.42;45.77
68128;SHT30;54931;52.098;21.006;2022-08-01T13:11:02;26.55;46.02
68128;SHT30;54931;52.098;21.006;2022-08-01T13:13:42;26.55;44.50
68128;SHT30;54931;52.098;21.006;2022-08-01T13:16:18;26.42;44.45
68128;SHT30;54931;52.098;21.006;2022-08-01T13:18:54;26.39;46.32
68128;SHT30;54931;52.098;21.006;2022-08-01T13:21:23;26.46;46.39
68128;SHT30;54931;52.098;21.006;2022-08-01T13:26:48;26.35;46.01
68128;SHT30;54931;52.098;21.006;2022-08-01T13:29:20;26.34;46.82
68128;SHT30;54931;52.098;21.006;2022-08-01T13:32:15;26.39;47.67
68128;SHT30;54931;52.098;21.006;2022-08-01T13:34:46;26.53;47.26
68128;SHT30;54931;52.098;21.006;2022-08-01T13:37:14;26.61;46.65
68128;SHT30;54931;52.098;21.006;2022-08-01T13:39:43;26.65;46.72
68128;SHT30;54931;52.098;21.006;2022-08-01T13:42:13;26.62;46.28
68128;SHT30;54931;52.098;21.006;2022-08-01T13:44:42;26.70;47.58
68128;SHT30;54931;52.098;21.006;2022-08-01T13:47:14;26.86;46.68
68128;SHT30;54931;52.098;21.006;2022-08-01T13:49:41;26.95;47.18
68128;SHT30;54931;52.098;21.006;2022-08-01T13:52:09;26.83;45.40
68128;SHT30;54931;52.098;21.006;2022-08-01T13:54:36;26.59;45.71
68128;SHT30;54931;52.098;21.006;2022-08-01T13:57:04;26.49;46.31
68128;SHT30;54931;52.098;21.006;2022-08-01T13:59:31;26.50;47.08
68128;SHT30;54931;52.098;21.006;2022-08-01T14:01:59;26.47;46.44
68128;SHT30;54931;52.098;21.006;2022-08-01T14:04:26;26.47;46.95
68128;SHT30;54931;52.098;21.006;2022-08-01T14:06:54;26.48;47.21
68128;SHT30;54931;52.098;21.006;2022-08-01T14:09:21;26.49;47.77
68128;SHT30;54931;52.098;21.006;2022-08-01T14:11:49;26.47;46.57
68128;SHT30;54931;52.098;21.006;2022-08-01T14:14:17;26.42;47.52
68128;SHT30;54931;52.098;21.006;2022-08-01T14:16:45;26.43;47.50
68128;SHT30;54931;52.098;21.006;2022-08-01T14:19:12;26.48;46.79
68128;SHT30;54931;52.098;21.006;2022-08-01T14:21:42;26.56;47.19
68128;SHT30;54931;52.098;21.006;2022-08-01T14:24:10;26.56;47.31
68128;SHT30;54931;52.098;21.006;2022-08-01T14:26:37;26.55;46.93
68128;SHT30;54931;52.098;21.006;2022-08-01T14:29:05;26.50;47.39
68128;SHT30;54931;52.098;21.006;2022-08-01T14:31:32;26.51;48.51
68128;SHT30;54931;52.098;21.006;2022-08-01T14:34:00;26.56;48.26
68128;SHT30;54931;52.098;21.006;2022-08-01T14:36:28;26.50;47.81
68128;SHT30;54931;52.098;21.006;2022-08-01T14:38:55;26.35;47.71
68128;SHT30;54931;52.098;21.006;2022-08-01T14:41:22;26.39;48.41
68128;SHT30;54931;52.098;21.006;2022-08-01T14:43:49;26.56;48.38
68128;SHT30;54931;52.098;21.006;2022-08-01T14:46:17;26.80;48.69
68128;SHT30;54931;52.098;21.006;2022-08-01T14:48:44;27.04;48.28
68128;SHT30;54931;52.098;21.006;2022-08-01T14:51:11;27.20;47.27
68128;SHT30;54931;52.098;21.006;2022-08-01T14:53:39;27.27;46.99
68128;SHT30;54931;52.098;21.006;2022-08-01T14:56:06;27.31;47.03
68128;SHT30;54931;52.098;21.006;2022-08-01T14:58:34;27.31;46.13
68128;SHT30;54931;52.098;21.006;2022-08-01T15:01:01;27.42;47.04
68128;SHT30;54931;52.098;21.006;2022-08-01T15:03:31;27.60;45.98
68128;SHT30;54931;52.098;21.006;2022-08-01T15:05:58;27.81;45.53
68128;SHT30;54931;52.098;21.006;2022-08-01T15:08:26;27.96;44.50
68128;SHT30;54931;52.098;21.006;2022-08-01T15:10:53;28.08;44.36
68128;SHT30;54931;52.098;21.006;2022-08-01T15:13:20;28.21;44.02
68128;SHT30;54931;52.098;21.006;2022-08-01T15:15:48;28.41;44.49
68128;SHT30;54931;52.098;21.006;2022-08-01T15:18:15;28.72;44.73
68128;SHT30;54931;52.098;21.006;2022-08-01T15:20:43;28.93;42.36
68128;SHT30;54931;52.098;21.006;2022-08-01T15:23:11;28.78;42.87
68128;SHT30;54931;52.098;21.006;2022-08-01T15:25:40;28.37;43.60
68128;SHT30;54931;52.098;21.006;2022-08-01T15:28:08;27.96;43.88
68128;SHT30;54931;52.098;21.006;2022-08-01T15:30:36;27.66;45.53
68128;SHT30;54931;52.098;21.006;2022-08-01T15:33:04;27.47;46.31
68128;SHT30;54931;52.098;21.006;2022-08-01T15:35:32;27.49;47.11
68128;SHT30;54931;52.098;21.006;2022-08-01T15:38:09;27.54;47.34
68128;SHT30;54931;52.098;21.006;2022-08-01T15:40:50;27.49;47.11
68128;SHT30;54931;52.098;21.006;2022-08-01T15:43:18;27.51;46.05
68128;SHT30;54931;52.098;21.006;2022-08-01T15:45:46;27.37;46.43
68128;SHT30;54931;52.098;21.006;2022-08-01T15:48:14;27.11;47.16
68128;SHT30;54931;52.098;21.006;2022-08-01T15:50:44;26.96;48.05
68128;SHT30;54931;52.098;21.006;2022-08-01T15:53:12;27.05;48.00
68128;SHT30;54931;52.098;21.006;2022-08-01T15:55:41;27.52;48.04
68128;SHT30;54931;52.098;21.006;2022-08-01T15:58:08;27.86;46.84
68128;SHT30;54931;52.098;21.006;2022-08-01T16:00:36;28.21;46.79
68128;SHT30;54931;52.098;21.006;2022-08-01T16:03:04;28.61;45.38
68128;SHT30;54931;52.098;21.006;2022-08-01T16:05:33;28.69;45.00
68128;SHT30;54931;52.098;21.006;2022-08-01T16:08:02;28.15;45.14
68128;SHT30;54931;52.098;21.006;2022-08-01T16:10:30;27.58;46.78
68128;SHT30;54931;52.098;21.006;2022-08-01T16:12:57;27.10;47.59
68128;SHT30;54931;52.098;21.006;2022-08-01T16:15:24;26.75;48.60
68128;SHT30;54931;52.098;21.006;2022-08-01T16:17:52;26.39;49.26
68128;SHT30;54931;52.098;21.006;2022-08-01T16:20:20;26.11;50.24